CheckWX is a tool to help pilots better visualize weather data.  It is not intended as a substitute for an official pre-flight weather briefing.

21:10:41 UTC

ENML METAR
Molde Airport
Årø, Norway
Current

51 mins ago

ENML 222020Z 05009KT CAVOK 03/M01 Q1011
Observed
Nov-22 @ 20:20 UTC
Wind
  • 050° at 9 KTS
Visibility
10,000+ meters
Flight Rules
VFR
Cloud Levels
  • Clear skies
Temperature
C / 37°F
Dewpoint
-1°C / 30°F
Humidity
75%
Altimeter
29.85" Hg
Pressure
1010.92 hPa
Previous

1 hour ago

ENML 221950Z 03009KT CAVOK 02/M02 Q1011
Observed
Nov-22 @ 19:50 UTC
Wind
  • 030° at 9 KTS
Visibility
10,000+ meters
Flight Rules
VFR
Cloud Levels
  • Clear skies
Temperature
C / 36°F
Dewpoint
-2°C / 28°F
Humidity
75%
Altimeter
29.85" Hg
Pressure
1010.92 hPa
Previous

2 hours ago

ENML 221920Z 04009KT CAVOK 03/M00 Q1011
Observed
Nov-22 @ 19:20 UTC
Wind
  • 040° at 9 KTS
Visibility
10,000+ meters
Flight Rules
VFR
Cloud Levels
  • Clear skies
Temperature
C / 37°F
Dewpoint
C / 32°F
Humidity
81%
Altimeter
29.85" Hg
Pressure
1010.92 hPa